Alicia, Arkansas
Current Conditions -  °F | °C
As of 4:56 AM on Wednesday 22 Oct 2014 (Local Time) from KM19 Reporting Station
Clear Clear  
Wind Chill: 45°   Ceiling: Unl
Heat Index: 48°   Visibility: 10mi
Dew Point: 46°   Wind: 6mph
Humidity: 93%   Direction: 360°N
Pressure: 30.2"   Gusts: NA
Location:  35.89°N, 91.08°W
Report Text: KM19 220956Z AUTO 36005KT 10SM CLR 09/08 A3020 RMK AO2 T00880077 SLP226
Loading
Personal Weather Stations






























Interactive Weather Map
Tropical Storm Tracking
New forecast layout! Learn more

10-Day Weather Forecast

Advertisements
Track Severe Weather on mobile